Aeroporto :
LOGIN :

Iscrizione | Disclaimer

   EN    FR    IT 

 










Sommario :    VFR   VFR Marginale   IFR   IFR Intensivo   IFR Molto Intensivo
Visibilità : 
Base nubi : 
>= 8 km
>= 3000ft
5 / 8 km
1000 / 3000 ft
1500m / 5 km
500 / 1000 ft
800 / 1500m
200 / 500 ft
< 800m
< 200 ft
Simboli :   Temporali  Nebbia  Neve Forte  Precipitazioni Forti  Vento > 20 kt
SIGMETs :   Varie  Temporali  Ghiacco  Turbolenza  Onda orograficha  Ceneri Vulcaniche







- Altitudine del aeroporto : 93 ft
- Codice IATA : XRY


LEJR - Jerez

ULTIMO METAR :
  • 240830Z 26004KT 210V320 CAVOK 18/10 Q1014

METARs OBSOLETI :
  • 240800Z 30005KT 270V330 CAVOK 17/10 Q1014
  • 240730Z 28004KT 240V340 CAVOK 16/09 Q1014
  • 240700Z 30005KT 270V330 CAVOK 15/09 Q1014
  • 240630Z 30004KT 250V330 CAVOK 15/09 Q1014
  • 240600Z 31005KT CAVOK 14/10 Q1014

TAF TAF LEJR
Valido dal 24 a 06 ore il 25 a 06 ore UTC


240500Z 2406/2506 VRB03KT CAVOK TX30/2414Z TN14/2406Z
BECMG 2412/2414 27012KT
BECMG 2418/2420 18008KT
Nessun NOTAM noto per questo aeroporto.
2 SIGMETs conosciuti per la FIR Madrid (LECM) :
 
Temporali affogati
LECM SIGMET 5 VALID 240700/240900 LEVA
LECM MADRID FIR/UIR EMBD TS OBS AT 0648Z WI N4202 W00020 - N3957 W00058 - N4055 W00226 - N4235 W00135 - N4202 W00020 TOP FL300 MOV E NC=
Turbolenza severa
LECM SIGMET 4 VALID 240800/241200 LEVA
LECM MADRID UIR SEV TURB FCST WI N4347 W00234 - N4155 W00334 - N4119 W00148 - N4253 W00047 - N4347 W00234 FL250/340 MOV E WKN=



MetMap, La meteo Aeronautica in un colpo d'occhio ! - Copyright ORBIFLY Dicembre 2007 - Disclaimer

ORBIFLY MET'MAP TEAM :

Programmazione e sviluppo : Alexandra Zaïnal
Concezione e sviluppo : Baudouin d'Aumeries
Co-Programmazione e sviluppo : Marc-Olivier Méhu
Supporto tecnico e logistico : Manuel Goepfert
Aiuto per la traduzione : Arnaldo La Scala

Contatto : metmap@orbifly.com




FONTI E CREDITI :

   NOAA